Thunder radar more information blitzortung!


Löydät sääaseman tiedot myös:

European Weather Network

Finland Weather Exchange

Weather Underground

AWEKAS



Weather Underground säähistoriasivu

Päivittäin yhteenveto Tou 6, 2017 Yksiköt:  Englantilaiset    Metriset   Molemmat
« Edellinen Päivä
Seuraava Päivä »
Päivittäin Viikoittain Kuukausittain Vuosittain Mukautettu
  Korkea: Matala: Keskiarvo:
Lämpötila: TemperatureC °F -0.2 °F 7.1 °F
Kastepiste: DewpointC °F -5.7 °F -0.1 °F
Kosteus: Humidity % 43 % 61 %
Tuulen nopeus: WindSpeedKMH mph 0.0 mph 3.3 mph
Tuulenpuuska: WindSpeedGustKMH mph - -
Tuuli:- - SE
Ilmanpaine: PressurehPa in 1013.4 in -
Sade: 0.0 in    
Historical Graphs
 
 
Taulukkotiedot Tou 6, 2017
Aika Lämpötila Kastepiste Ilmanpaine Tuuli Tuulen nopeus Tuulenpuuska Kosteus Sademäärä (tunneittain)
TemperatureC °F DewpointC °F PressurehPa in Calm     Humidity % HourlyPrecipMM in
00:00 10.0 °F 5.8 °F 1013.8 in NW 1.6 mph 9.7 mph 75 % 0.0 in
00:15 9.9 °F 5.9 °F 1013.4 in WNW 1.6 mph 8.0 mph 76 % 0.0 in
00:30 9.8 °F 5.7 °F 1013.4 in NW 3.2 mph 8.0 mph 76 % 0.0 in
00:45 9.6 °F 5.5 °F 1013.4 in NW 1.6 mph 4.8 mph 76 % 0.0 in
01:00 9.6 °F 5.5 °F 1013.4 in NW 4.8 mph 9.7 mph 76 % 0.0 in
01:15 9.6 °F 5.5 °F 1013.4 in NW 3.2 mph 9.7 mph 76 % 0.0 in
01:30 9.4 °F 5.4 °F 1013.4 in NW 4.8 mph 11.3 mph 76 % 0.0 in
01:45 9.2 °F 5.3 °F 1013.4 in NW 3.2 mph 9.7 mph 77 % 0.0 in
02:00 8.9 °F 5.3 °F 1013.4 in NW 6.4 mph 11.3 mph 78 % 0.0 in
02:15 8.7 °F 5.1 °F 1013.4 in NNW 4.8 mph 16.1 mph 78 % 0.0 in
02:30 8.2 °F 4.6 °F 1013.4 in NNW 3.2 mph 6.4 mph 78 % 0.0 in
02:45 8.0 °F 4.2 °F 1013.4 in North 1.6 mph 9.7 mph 77 % 0.0 in
03:00 7.7 °F 3.9 °F 1013.8 in NNE 1.6 mph 6.4 mph 77 % 0.0 in
03:15 7.5 °F 3.7 °F 1013.8 in Calm   4.8 mph 77 % 0.0 in
03:30 7.3 °F 3.7 °F 1013.8 in Calm   6.4 mph 78 % 0.0 in
03:45 7.5 °F 3.7 °F 1014.1 in NNE 1.6 mph 6.4 mph 77 % 0.0 in
04:00 7.7 °F 3.7 °F 1014.1 in NNE 1.6 mph 4.8 mph 76 % 0.0 in
04:15 7.8 °F 3.6 °F 1014.1 in Calm   3.2 mph 75 % 0.0 in
04:30 7.7 °F 3.6 °F 1014.1 in Calm   3.2 mph 75 % 0.0 in
04:45 7.7 °F 3.5 °F 1014.1 in NNW 1.6 mph 9.7 mph 75 % 0.0 in
05:00 7.6 °F 3.4 °F 1014.4 in NNE 1.6 mph 6.4 mph 75 % 0.0 in
05:15 7.3 °F 3.2 °F 1014.4 in NNW 1.6 mph 6.4 mph 75 % 0.0 in
05:30 7.0 °F 3.1 °F 1014.4 in NNW 1.6 mph 4.8 mph 76 % 0.0 in
05:45 6.6 °F 2.6 °F 1014.4 in Calm   3.2 mph 76 % 0.0 in
06:00 6.2 °F 2.6 °F 1014.8 in Calm   1.6 mph 78 % 0.0 in
06:15 6.3 °F 2.8 °F 1014.8 in NNE 1.6 mph 4.8 mph 78 % 0.0 in
06:30 6.4 °F 2.9 °F 1015.1 in NNE 1.6 mph 4.8 mph 78 % 0.0 in
06:45 6.3 °F 2.9 °F 1015.5 in North 3.2 mph 8.0 mph 79 % 0.0 in
07:00 6.4 °F 3.2 °F 1015.5 in NNE 1.6 mph 8.0 mph 80 % 0.0 in
07:15 7.2 °F 3.6 °F 1015.5 in NNE 1.6 mph 6.4 mph 78 % 0.0 in
07:30 7.2 °F 3.5 °F 1015.5 in NNE 1.6 mph 4.8 mph 77 % 0.0 in
07:45 7.3 °F 3.5 °F 1015.8 in North 3.2 mph 9.7 mph 77 % 0.0 in
08:00 7.2 °F 3.5 °F 1015.8 in NNE 1.6 mph 6.4 mph 77 % 0.0 in
08:15 7.3 °F 3.5 °F 1016.1 in NNE 1.6 mph 6.4 mph 77 % 0.0 in
08:30 7.4 °F 3.4 °F 1016.1 in NNE 1.6 mph 8.0 mph 76 % 0.0 in
08:45 7.7 °F 2.6 °F 1016.5 in NNE 3.2 mph 8.0 mph 70 % 0.0 in
09:00 7.9 °F 1.8 °F 1016.5 in NNE 3.2 mph 11.3 mph 65 % 0.0 in
09:15 8.2 °F 1.6 °F 1016.5 in North 1.6 mph 8.0 mph 63 % 0.0 in
09:30 8.6 °F 1.3 °F 1016.5 in North 3.2 mph 11.3 mph 60 % 0.0 in
09:45 8.7 °F 0.4 °F 1016.5 in NNE 4.8 mph 9.7 mph 56 % 0.0 in
10:00 8.6 °F 0.6 °F 1016.8 in NNE 3.2 mph 9.7 mph 57 % 0.0 in
10:15 8.8 °F 0.8 °F 1017.2 in NNE 4.8 mph 12.9 mph 57 % 0.0 in
10:30 9.0 °F -0.1 °F 1017.2 in North 4.8 mph 14.5 mph 53 % 0.0 in
10:45 8.9 °F 0.6 °F 1017.2 in NNE 4.8 mph 16.1 mph 56 % 0.0 in
11:00 9.3 °F 0.7 °F 1017.2 in NNE 4.8 mph 8.0 mph 55 % 0.0 in
11:15 9.3 °F 0.9 °F 1017.5 in North 4.8 mph 11.3 mph 56 % 0.0 in
11:30 9.2 °F 0.1 °F 1017.5 in NNE 4.8 mph 11.3 mph 53 % 0.0 in
11:45 9.2 °F -0.4 °F 1017.5 in North 4.8 mph 12.9 mph 51 % 0.0 in
12:00 9.2 °F -0.5 °F 1017.8 in North 6.4 mph 16.1 mph 51 % 0.0 in
12:15 9.0 °F -2.0 °F 1017.8 in NNE 6.4 mph 16.1 mph 46 % 0.0 in
12:30 8.7 °F -0.7 °F 1017.8 in NNE 4.8 mph 11.3 mph 52 % 0.0 in
12:45 9.3 °F -1.8 °F 1017.8 in North 4.8 mph 16.1 mph 46 % 0.0 in
13:00 9.1 °F -2.0 °F 1017.8 in North 8.0 mph 14.5 mph 46 % 0.0 in
13:15 9.1 °F -1.9 °F 1017.8 in North 6.4 mph 14.5 mph 46 % 0.0 in
13:30 8.8 °F -2.2 °F 1017.8 in North 8.0 mph 14.5 mph 46 % 0.0 in
13:45 8.8 °F -1.0 °F 1017.8 in North 6.4 mph 16.1 mph 50 % 0.0 in
14:00 8.8 °F -2.5 °F 1018.2 in North 6.4 mph 17.7 mph 45 % 0.0 in
14:15 8.8 °F -2.5 °F 1017.8 in North 8.0 mph 14.5 mph 45 % 0.0 in
14:30 8.4 °F -2.5 °F 1017.8 in North 6.4 mph 14.5 mph 46 % 0.0 in
14:45 8.7 °F -2.6 °F 1017.8 in North 4.8 mph 11.3 mph 45 % 0.0 in
15:00 8.2 °F -2.7 °F 1017.8 in North 6.4 mph 12.9 mph 46 % 0.0 in
15:15 8.2 °F -1.9 °F 1017.8 in North 6.4 mph 12.9 mph 49 % 0.0 in
15:30 8.2 °F -2.5 °F 1017.5 in North 6.4 mph 14.5 mph 47 % 0.0 in
15:45 8.5 °F -2.8 °F 1017.8 in North 4.8 mph 11.3 mph 45 % 0.0 in
16:00 8.2 °F -3.0 °F 1017.8 in North 6.4 mph 19.3 mph 45 % 0.0 in
16:15 7.9 °F -2.7 °F 1017.8 in North 6.4 mph 12.9 mph 47 % 0.0 in
16:30 7.9 °F -3.0 °F 1017.8 in North 4.8 mph 11.3 mph 46 % 0.0 in
16:45 8.0 °F -2.1 °F 1017.8 in NNE 4.8 mph 17.7 mph 49 % 0.0 in
17:00 7.6 °F -3.6 °F 1017.5 in North 6.4 mph 11.3 mph 45 % 0.0 in
17:15 7.7 °F -1.8 °F 1017.5 in NNE 3.2 mph 8.0 mph 51 % 0.0 in
17:30 7.8 °F -3.1 °F 1017.5 in North 4.8 mph 16.1 mph 46 % 0.0 in
17:45 7.4 °F -3.2 °F 1017.5 in NNE 4.8 mph 9.7 mph 47 % 0.0 in
18:00 7.2 °F -3.1 °F 1017.5 in North 4.8 mph 14.5 mph 48 % 0.0 in
18:15 7.1 °F -3.5 °F 1017.5 in North 4.8 mph 12.9 mph 47 % 0.0 in
18:30 6.8 °F -4.9 °F 1017.5 in NNE 3.2 mph 8.0 mph 43 % 0.0 in
18:45 6.6 °F -3.7 °F 1017.2 in NNE 3.2 mph 9.7 mph 48 % 0.0 in
19:00 6.3 °F -4.5 °F 1017.2 in NNE 4.8 mph 8.0 mph 46 % 0.0 in
19:15 6.1 °F -4.1 °F 1017.2 in NNE 3.2 mph 8.0 mph 48 % 0.0 in
19:30 5.7 °F -4.0 °F 1017.2 in NNE 3.2 mph 8.0 mph 50 % 0.0 in
19:45 5.3 °F -4.3 °F 1016.8 in North 4.8 mph 11.3 mph 50 % 0.0 in
20:00 4.8 °F -5.3 °F 1016.8 in North 3.2 mph 8.0 mph 48 % 0.0 in
20:15 4.4 °F -4.1 °F 1016.8 in NE 1.6 mph 6.4 mph 54 % 0.0 in
20:30 4.1 °F -4.9 °F 1016.8 in North 3.2 mph 6.4 mph 52 % 0.0 in
20:45 3.7 °F -5.5 °F 1016.5 in North 3.2 mph 8.0 mph 51 % 0.0 in
21:00 3.5 °F -5.7 °F 1016.8 in North 1.6 mph 9.7 mph 51 % 0.0 in
21:15 3.3 °F -5.4 °F 1016.8 in North 1.6 mph 6.4 mph 53 % 0.0 in
21:45 2.4 °F -5.5 °F 1016.8 in Calm   4.8 mph 56 % 0.0 in
22:00 2.0 °F -5.6 °F 1016.5 in Calm   3.2 mph 57 % 0.0 in
22:15 1.7 °F -5.7 °F 1016.5 in Calm   3.2 mph 58 % 0.0 in
22:45 0.9 °F -5.7 °F 1016.5 in Calm   1.6 mph 61 % 0.0 in
23:00 0.5 °F -5.5 °F 1016.5 in Calm     64 % 0.0 in
23:15 0.2 °F -5.4 °F 1016.5 in Calm   3.2 mph 66 % 0.0 in
23:30 0.0 °F -5.0 °F 1016.5 in Calm   3.2 mph 69 % 0.0 in
23:45 -0.2 °F -5.2 °F 1016.5 in Calm   1.6 mph 69 % 0.0 in
Esan sääasema
Terveisin Weather Underground - 2.75 mb

Alkuperäinen skripti  Jim McMurry - jmcmurry@mwt.net Sovitettu myös templatelle  Wim van der Kuil - Leuven-Template.eu

Laitteet joita käytämme:

Sääasema
Davis VP2

Sääasemaohjelma
Cumulus

Sääaseman tietokone
Asus EeePC

Palveluntarjoaja
Suncomet

Davis VP2

Cumulus

Asus EeePC

Suncomet